sensor_id;sensor_type;location;lat;lon;timestamp;P1;durP1;ratioP1;P2;durP2;ratioP2
60006;SDS011;45863;50.336;3.536;2023-02-02T00:01:07;30.08;;;5.28;;
60006;SDS011;45863;50.336;3.536;2023-02-02T00:03:32;32.35;;;5.38;;
60006;SDS011;45863;50.336;3.536;2023-02-02T00:05:57;29.83;;;5.40;;
60006;SDS011;45863;50.336;3.536;2023-02-02T00:08:22;35.45;;;5.93;;
60006;SDS011;45863;50.336;3.536;2023-02-02T00:10:47;31.30;;;5.85;;
60006;SDS011;45863;50.336;3.536;2023-02-02T00:13:14;30.27;;;5.15;;
60006;SDS011;45863;50.336;3.536;2023-02-02T00:15:39;34.90;;;5.80;;
60006;SDS011;45863;50.336;3.536;2023-02-02T00:18:05;33.17;;;5.65;;
60006;SDS011;45863;50.336;3.536;2023-02-02T00:20:30;39.17;;;5.82;;
60006;SDS011;45863;50.336;3.536;2023-02-02T00:22:56;31.23;;;5.88;;
60006;SDS011;45863;50.336;3.536;2023-02-02T00:25:21;33.60;;;5.47;;
60006;SDS011;45863;50.336;3.536;2023-02-02T00:27:46;22.98;;;5.65;;
60006;SDS011;45863;50.336;3.536;2023-02-02T00:30:12;33.42;;;5.57;;
60006;SDS011;45863;50.336;3.536;2023-02-02T00:32:37;31.77;;;5.35;;
60006;SDS011;45863;50.336;3.536;2023-02-02T00:35:04;36.53;;;5.30;;
60006;SDS011;45863;50.336;3.536;2023-02-02T00:37:30;26.88;;;5.03;;
60006;SDS011;45863;50.336;3.536;2023-02-02T00:39:55;36.97;;;5.95;;
60006;SDS011;45863;50.336;3.536;2023-02-02T00:42:20;30.15;;;6.38;;
60006;SDS011;45863;50.336;3.536;2023-02-02T00:44:46;30.10;;;6.50;;
60006;SDS011;45863;50.336;3.536;2023-02-02T00:47:29;28.95;;;5.40;;
60006;SDS011;45863;50.336;3.536;2023-02-02T00:49:55;36.92;;;5.43;;
60006;SDS011;45863;50.336;3.536;2023-02-02T00:52:20;28.10;;;5.00;;
60006;SDS011;45863;50.336;3.536;2023-02-02T00:54:45;29.13;;;4.85;;
60006;SDS011;45863;50.336;3.536;2023-02-02T00:57:14;38.40;;;6.13;;
60006;SDS011;45863;50.336;3.536;2023-02-02T00:59:39;29.02;;;5.25;;
60006;SDS011;45863;50.336;3.536;2023-02-02T01:02:05;23.92;;;5.25;;
60006;SDS011;45863;50.336;3.536;2023-02-02T01:04:30;27.48;;;5.30;;
60006;SDS011;45863;50.336;3.536;2023-02-02T01:06:55;26.27;;;5.07;;
60006;SDS011;45863;50.336;3.536;2023-02-02T01:09:21;30.65;;;6.65;;
60006;SDS011;45863;50.336;3.536;2023-02-02T01:11:46;33.30;;;5.95;;
60006;SDS011;45863;50.336;3.536;2023-02-02T01:14:11;32.43;;;6.00;;
60006;SDS011;45863;50.336;3.536;2023-02-02T01:16:36;29.83;;;5.60;;
60006;SDS011;45863;50.336;3.536;2023-02-02T01:19:02;33.30;;;5.38;;
60006;SDS011;45863;50.336;3.536;2023-02-02T01:21:27;38.90;;;6.65;;
60006;SDS011;45863;50.336;3.536;2023-02-02T01:23:52;26.15;;;5.10;;
60006;SDS011;45863;50.336;3.536;2023-02-02T01:26:17;27.60;;;4.80;;
60006;SDS011;45863;50.336;3.536;2023-02-02T01:28:43;26.13;;;5.05;;
60006;SDS011;45863;50.336;3.536;2023-02-02T01:31:09;29.10;;;5.68;;
60006;SDS011;45863;50.336;3.536;2023-02-02T01:33:35;28.25;;;5.15;;
60006;SDS011;45863;50.336;3.536;2023-02-02T01:36:03;27.95;;;4.95;;
60006;SDS011;45863;50.336;3.536;2023-02-02T01:38:29;32.65;;;6.38;;
60006;SDS011;45863;50.336;3.536;2023-02-02T01:40:55;23.30;;;4.60;;
60006;SDS011;45863;50.336;3.536;2023-02-02T01:43:24;28.67;;;5.55;;
60006;SDS011;45863;50.336;3.536;2023-02-02T01:45:50;25.42;;;5.20;;
60006;SDS011;45863;50.336;3.536;2023-02-02T01:48:16;34.50;;;4.80;;
60006;SDS011;45863;50.336;3.536;2023-02-02T01:50:42;30.65;;;4.78;;
60006;SDS011;45863;50.336;3.536;2023-02-02T01:53:07;28.52;;;5.75;;
60006;SDS011;45863;50.336;3.536;2023-02-02T01:55:34;35.30;;;5.38;;
60006;SDS011;45863;50.336;3.536;2023-02-02T01:58:01;26.67;;;4.70;;
60006;SDS011;45863;50.336;3.536;2023-02-02T02:00:28;28.92;;;5.18;;
60006;SDS011;45863;50.336;3.536;2023-02-02T02:02:55;31.77;;;5.07;;
60006;SDS011;45863;50.336;3.536;2023-02-02T02:05:26;25.88;;;5.28;;
60006;SDS011;45863;50.336;3.536;2023-02-02T02:07:53;29.00;;;4.70;;
60006;SDS011;45863;50.336;3.536;2023-02-02T02:10:20;22.52;;;4.03;;
60006;SDS011;45863;50.336;3.536;2023-02-02T02:12:48;31.25;;;5.30;;
60006;SDS011;45863;50.336;3.536;2023-02-02T02:15:13;32.05;;;5.18;;
60006;SDS011;45863;50.336;3.536;2023-02-02T02:18:11;24.95;;;5.32;;
60006;SDS011;45863;50.336;3.536;2023-02-02T02:23:43;23.88;;;5.03;;
60006;SDS011;45863;50.336;3.536;2023-02-02T02:26:42;29.83;;;5.32;;
60006;SDS011;45863;50.336;3.536;2023-02-02T02:36:49;31.80;;;5.57;;
60006;SDS011;45863;50.336;3.536;2023-02-02T02:41:51;27.35;;;5.60;;
60006;SDS011;45863;50.336;3.536;2023-02-02T02:44:17;27.02;;;5.35;;
60006;SDS011;45863;50.336;3.536;2023-02-02T02:46:43;31.80;;;4.80;;
60006;SDS011;45863;50.336;3.536;2023-02-02T02:49:10;26.73;;;5.82;;
60006;SDS011;45863;50.336;3.536;2023-02-02T02:51:46;28.58;;;6.00;;
60006;SDS011;45863;50.336;3.536;2023-02-02T02:54:19;30.42;;;5.80;;
60006;SDS011;45863;50.336;3.536;2023-02-02T03:05:11;22.42;;;4.50;;
60006;SDS011;45863;50.336;3.536;2023-02-02T03:07:41;25.67;;;5.47;;
60006;SDS011;45863;50.336;3.536;2023-02-02T03:10:07;31.52;;;5.55;;
60006;SDS011;45863;50.336;3.536;2023-02-02T03:12:41;26.45;;;4.82;;
60006;SDS011;45863;50.336;3.536;2023-02-02T03:15:07;20.80;;;3.90;;
60006;SDS011;45863;50.336;3.536;2023-02-02T03:17:32;26.60;;;5.18;;
60006;SDS011;45863;50.336;3.536;2023-02-02T03:19:57;31.35;;;4.70;;
60006;SDS011;45863;50.336;3.536;2023-02-02T03:22:22;39.40;;;4.55;;
60006;SDS011;45863;50.336;3.536;2023-02-02T03:24:48;25.23;;;4.75;;
60006;SDS011;45863;50.336;3.536;2023-02-02T03:27:13;27.23;;;4.53;;
60006;SDS011;45863;50.336;3.536;2023-02-02T03:29:38;21.63;;;4.45;;
60006;SDS011;45863;50.336;3.536;2023-02-02T03:32:03;25.50;;;4.95;;
60006;SDS011;45863;50.336;3.536;2023-02-02T03:34:29;21.67;;;3.47;;
60006;SDS011;45863;50.336;3.536;2023-02-02T03:36:54;25.20;;;4.53;;
60006;SDS011;45863;50.336;3.536;2023-02-02T03:39:19;31.95;;;5.50;;
60006;SDS011;45863;50.336;3.536;2023-02-02T03:41:44;18.75;;;4.28;;
60006;SDS011;45863;50.336;3.536;2023-02-02T03:44:09;28.45;;;5.18;;
60006;SDS011;45863;50.336;3.536;2023-02-02T03:46:35;33.63;;;4.97;;
60006;SDS011;45863;50.336;3.536;2023-02-02T03:49:00;27.05;;;4.85;;
60006;SDS011;45863;50.336;3.536;2023-02-02T03:51:25;25.23;;;5.20;;
60006;SDS011;45863;50.336;3.536;2023-02-02T03:53:50;24.73;;;4.87;;
60006;SDS011;45863;50.336;3.536;2023-02-02T03:56:15;24.23;;;4.18;;
60006;SDS011;45863;50.336;3.536;2023-02-02T03:58:41;29.00;;;4.82;;
60006;SDS011;45863;50.336;3.536;2023-02-02T04:01:07;26.63;;;4.45;;
60006;SDS011;45863;50.336;3.536;2023-02-02T04:03:34;32.95;;;5.50;;
60006;SDS011;45863;50.336;3.536;2023-02-02T04:05:59;26.02;;;4.85;;
60006;SDS011;45863;50.336;3.536;2023-02-02T04:08:25;27.42;;;5.15;;
60006;SDS011;45863;50.336;3.536;2023-02-02T04:10:50;18.95;;;4.80;;
60006;SDS011;45863;50.336;3.536;2023-02-02T04:13:15;24.98;;;4.13;;
60006;SDS011;45863;50.336;3.536;2023-02-02T04:15:40;22.52;;;4.00;;
60006;SDS011;45863;50.336;3.536;2023-02-02T04:18:06;28.98;;;4.78;;
60006;SDS011;45863;50.336;3.536;2023-02-02T04:20:31;32.78;;;5.50;;
60006;SDS011;45863;50.336;3.536;2023-02-02T04:22:56;24.80;;;5.18;;
60006;SDS011;45863;50.336;3.536;2023-02-02T04:25:21;29.08;;;5.05;;
60006;SDS011;45863;50.336;3.536;2023-02-02T04:27:47;29.13;;;4.40;;
60006;SDS011;45863;50.336;3.536;2023-02-02T04:30:12;33.25;;;5.90;;
60006;SDS011;45863;50.336;3.536;2023-02-02T04:32:37;26.23;;;4.53;;
60006;SDS011;45863;50.336;3.536;2023-02-02T04:35:02;29.50;;;5.13;;
60006;SDS011;45863;50.336;3.536;2023-02-02T04:37:29;19.58;;;4.38;;
60006;SDS011;45863;50.336;3.536;2023-02-02T04:39:55;24.40;;;4.43;;
60006;SDS011;45863;50.336;3.536;2023-02-02T04:42:20;26.02;;;5.03;;
60006;SDS011;45863;50.336;3.536;2023-02-02T04:44:45;32.17;;;5.00;;
60006;SDS011;45863;50.336;3.536;2023-02-02T04:47:11;25.38;;;4.57;;
60006;SDS011;45863;50.336;3.536;2023-02-02T04:49:36;32.53;;;4.15;;
60006;SDS011;45863;50.336;3.536;2023-02-02T04:52:01;21.35;;;4.32;;
60006;SDS011;45863;50.336;3.536;2023-02-02T04:54:27;25.40;;;4.70;;
60006;SDS011;45863;50.336;3.536;2023-02-02T04:56:52;31.67;;;5.00;;
60006;SDS011;45863;50.336;3.536;2023-02-02T04:59:17;33.47;;;6.35;;
60006;SDS011;45863;50.336;3.536;2023-02-02T05:01:42;38.22;;;4.80;;
60006;SDS011;45863;50.336;3.536;2023-02-02T05:04:09;29.00;;;5.25;;
60006;SDS011;45863;50.336;3.536;2023-02-02T05:06:34;29.38;;;5.05;;
60006;SDS011;45863;50.336;3.536;2023-02-02T05:08:59;22.47;;;4.40;;
60006;SDS011;45863;50.336;3.536;2023-02-02T05:11:25;28.10;;;4.47;;
60006;SDS011;45863;50.336;3.536;2023-02-02T05:13:51;23.80;;;4.93;;
60006;SDS011;45863;50.336;3.536;2023-02-02T05:16:16;20.88;;;4.47;;
60006;SDS011;45863;50.336;3.536;2023-02-02T05:18:42;31.45;;;4.85;;
60006;SDS011;45863;50.336;3.536;2023-02-02T05:21:12;33.78;;;4.93;;
60006;SDS011;45863;50.336;3.536;2023-02-02T05:23:37;33.35;;;5.60;;
60006;SDS011;45863;50.336;3.536;2023-02-02T05:26:02;19.50;;;4.15;;
60006;SDS011;45863;50.336;3.536;2023-02-02T05:28:28;28.88;;;6.60;;
60006;SDS011;45863;50.336;3.536;2023-02-02T05:30:53;21.15;;;4.90;;
60006;SDS011;45863;50.336;3.536;2023-02-02T05:33:18;27.48;;;5.32;;
60006;SDS011;45863;50.336;3.536;2023-02-02T05:35:44;36.58;;;5.30;;
60006;SDS011;45863;50.336;3.536;2023-02-02T05:38:09;37.13;;;5.03;;
60006;SDS011;45863;50.336;3.536;2023-02-02T05:40:34;31.75;;;5.88;;
60006;SDS011;45863;50.336;3.536;2023-02-02T05:43:00;33.17;;;5.00;;
60006;SDS011;45863;50.336;3.536;2023-02-02T05:45:25;25.13;;;4.97;;
60006;SDS011;45863;50.336;3.536;2023-02-02T05:47:52;27.23;;;4.97;;
60006;SDS011;45863;50.336;3.536;2023-02-02T05:50:17;28.95;;;4.63;;
60006;SDS011;45863;50.336;3.536;2023-02-02T05:52:42;36.08;;;5.63;;
60006;SDS011;45863;50.336;3.536;2023-02-02T05:55:08;27.08;;;4.07;;
60006;SDS011;45863;50.336;3.536;2023-02-02T05:57:34;25.23;;;4.68;;
60006;SDS011;45863;50.336;3.536;2023-02-02T05:59:59;25.55;;;4.30;;
60006;SDS011;45863;50.336;3.536;2023-02-02T06:02:25;29.13;;;5.03;;
60006;SDS011;45863;50.336;3.536;2023-02-02T06:04:50;29.27;;;5.53;;
60006;SDS011;45863;50.336;3.536;2023-02-02T06:07:15;31.95;;;4.72;;
60006;SDS011;45863;50.336;3.536;2023-02-02T06:09:40;37.22;;;5.05;;
60006;SDS011;45863;50.336;3.536;2023-02-02T06:12:05;24.40;;;4.85;;
60006;SDS011;45863;50.336;3.536;2023-02-02T06:14:31;30.50;;;5.47;;
60006;SDS011;45863;50.336;3.536;2023-02-02T06:16:56;35.13;;;4.75;;
60006;SDS011;45863;50.336;3.536;2023-02-02T06:19:22;27.35;;;4.97;;
60006;SDS011;45863;50.336;3.536;2023-02-02T06:21:47;24.10;;;4.40;;
60006;SDS011;45863;50.336;3.536;2023-02-02T06:24:12;32.72;;;4.22;;
60006;SDS011;45863;50.336;3.536;2023-02-02T06:26:37;23.15;;;4.75;;
60006;SDS011;45863;50.336;3.536;2023-02-02T06:29:03;22.48;;;3.85;;
60006;SDS011;45863;50.336;3.536;2023-02-02T06:31:28;27.55;;;4.07;;
60006;SDS011;45863;50.336;3.536;2023-02-02T06:33:54;31.30;;;5.18;;
60006;SDS011;45863;50.336;3.536;2023-02-02T06:36:20;26.30;;;4.32;;
60006;SDS011;45863;50.336;3.536;2023-02-02T06:38:49;19.30;;;3.58;;
60006;SDS011;45863;50.336;3.536;2023-02-02T06:41:15;22.65;;;4.25;;
60006;SDS011;45863;50.336;3.536;2023-02-02T06:43:40;20.33;;;3.60;;
60006;SDS011;45863;50.336;3.536;2023-02-02T06:46:05;19.65;;;4.13;;
60006;SDS011;45863;50.336;3.536;2023-02-02T06:48:30;20.25;;;3.97;;
60006;SDS011;45863;50.336;3.536;2023-02-02T06:50:56;24.00;;;4.38;;
60006;SDS011;45863;50.336;3.536;2023-02-02T06:53:21;20.10;;;4.18;;
60006;SDS011;45863;50.336;3.536;2023-02-02T06:55:57;22.08;;;4.53;;
60006;SDS011;45863;50.336;3.536;2023-02-02T06:58:22;23.38;;;4.55;;
60006;SDS011;45863;50.336;3.536;2023-02-02T07:00:47;17.65;;;3.55;;
60006;SDS011;45863;50.336;3.536;2023-02-02T07:03:13;24.58;;;3.92;;
60006;SDS011;45863;50.336;3.536;2023-02-02T07:05:38;18.45;;;3.70;;
60006;SDS011;45863;50.336;3.536;2023-02-02T07:08:04;16.88;;;3.03;;
60006;SDS011;45863;50.336;3.536;2023-02-02T07:10:29;22.00;;;4.05;;
60006;SDS011;45863;50.336;3.536;2023-02-02T07:12:54;17.50;;;4.68;;
60006;SDS011;45863;50.336;3.536;2023-02-02T07:15:20;20.73;;;3.60;;
60006;SDS011;45863;50.336;3.536;2023-02-02T07:17:45;16.63;;;3.63;;
60006;SDS011;45863;50.336;3.536;2023-02-02T07:20:10;14.48;;;3.40;;
60006;SDS011;45863;50.336;3.536;2023-02-02T07:22:39;19.83;;;4.47;;
60006;SDS011;45863;50.336;3.536;2023-02-02T07:25:05;19.17;;;3.75;;
60006;SDS011;45863;50.336;3.536;2023-02-02T07:27:30;23.75;;;4.30;;
60006;SDS011;45863;50.336;3.536;2023-02-02T07:29:56;17.65;;;4.15;;
60006;SDS011;45863;50.336;3.536;2023-02-02T07:32:22;19.77;;;4.18;;
60006;SDS011;45863;50.336;3.536;2023-02-02T07:34:47;25.25;;;4.40;;
60006;SDS011;45863;50.336;3.536;2023-02-02T07:37:12;23.38;;;3.58;;
60006;SDS011;45863;50.336;3.536;2023-02-02T07:39:37;21.85;;;5.22;;
60006;SDS011;45863;50.336;3.536;2023-02-02T07:42:04;20.17;;;4.15;;
60006;SDS011;45863;50.336;3.536;2023-02-02T07:44:29;20.75;;;4.63;;
60006;SDS011;45863;50.336;3.536;2023-02-02T07:46:55;16.92;;;3.65;;
60006;SDS011;45863;50.336;3.536;2023-02-02T07:49:20;26.67;;;5.32;;
60006;SDS011;45863;50.336;3.536;2023-02-02T07:51:45;22.33;;;3.92;;
60006;SDS011;45863;50.336;3.536;2023-02-02T07:54:13;15.32;;;3.97;;
60006;SDS011;45863;50.336;3.536;2023-02-02T07:56:38;19.58;;;3.70;;
60006;SDS011;45863;50.336;3.536;2023-02-02T07:59:03;26.45;;;4.68;;
60006;SDS011;45863;50.336;3.536;2023-02-02T08:01:29;19.95;;;4.40;;
60006;SDS011;45863;50.336;3.536;2023-02-02T08:03:54;15.43;;;3.97;;
60006;SDS011;45863;50.336;3.536;2023-02-02T08:06:22;16.65;;;3.80;;
60006;SDS011;45863;50.336;3.536;2023-02-02T08:08:47;26.90;;;4.80;;
60006;SDS011;45863;50.336;3.536;2023-02-02T08:11:13;21.40;;;3.85;;
60006;SDS011;45863;50.336;3.536;2023-02-02T08:13:39;24.88;;;3.55;;
60006;SDS011;45863;50.336;3.536;2023-02-02T08:16:05;17.15;;;3.50;;
60006;SDS011;45863;50.336;3.536;2023-02-02T08:18:31;22.60;;;3.97;;
60006;SDS011;45863;50.336;3.536;2023-02-02T08:20:59;16.67;;;3.70;;
60006;SDS011;45863;50.336;3.536;2023-02-02T08:23:25;20.33;;;4.13;;
60006;SDS011;45863;50.336;3.536;2023-02-02T08:25:50;22.60;;;3.83;;
60006;SDS011;45863;50.336;3.536;2023-02-02T08:28:16;16.63;;;3.63;;
60006;SDS011;45863;50.336;3.536;2023-02-02T08:30:41;19.70;;;3.50;;
60006;SDS011;45863;50.336;3.536;2023-02-02T08:33:06;18.98;;;3.88;;
60006;SDS011;45863;50.336;3.536;2023-02-02T08:35:32;23.48;;;4.07;;
60006;SDS011;45863;50.336;3.536;2023-02-02T08:37:57;19.08;;;4.28;;
60006;SDS011;45863;50.336;3.536;2023-02-02T08:40:22;20.20;;;3.47;;
60006;SDS011;45863;50.336;3.536;2023-02-02T08:42:52;20.27;;;4.38;;
60006;SDS011;45863;50.336;3.536;2023-02-02T08:45:17;19.45;;;4.68;;
60006;SDS011;45863;50.336;3.536;2023-02-02T08:47:42;22.73;;;4.68;;
60006;SDS011;45863;50.336;3.536;2023-02-02T08:50:08;22.30;;;4.30;;
60006;SDS011;45863;50.336;3.536;2023-02-02T08:52:33;25.05;;;4.05;;
60006;SDS011;45863;50.336;3.536;2023-02-02T08:54:58;21.63;;;3.88;;
60006;SDS011;45863;50.336;3.536;2023-02-02T08:57:24;21.05;;;4.10;;
60006;SDS011;45863;50.336;3.536;2023-02-02T08:59:49;19.98;;;3.08;;
60006;SDS011;45863;50.336;3.536;2023-02-02T09:02:14;16.77;;;2.90;;
60006;SDS011;45863;50.336;3.536;2023-02-02T09:04:40;13.20;;;3.80;;
60006;SDS011;45863;50.336;3.536;2023-02-02T09:07:09;12.95;;;3.55;;
60006;SDS011;45863;50.336;3.536;2023-02-02T09:09:34;16.77;;;4.10;;
60006;SDS011;45863;50.336;3.536;2023-02-02T09:11:59;17.10;;;4.20;;
60006;SDS011;45863;50.336;3.536;2023-02-02T09:14:24;26.17;;;4.13;;
60006;SDS011;45863;50.336;3.536;2023-02-02T09:16:50;18.05;;;3.83;;
60006;SDS011;45863;50.336;3.536;2023-02-02T09:19:15;15.13;;;3.30;;
60006;SDS011;45863;50.336;3.536;2023-02-02T09:21:41;18.70;;;4.28;;
60006;SDS011;45863;50.336;3.536;2023-02-02T09:24:06;19.80;;;5.03;;
60006;SDS011;45863;50.336;3.536;2023-02-02T09:26:32;17.73;;;5.82;;
60006;SDS011;45863;50.336;3.536;2023-02-02T09:28:59;18.42;;;6.18;;
60006;SDS011;45863;50.336;3.536;2023-02-02T09:31:28;20.90;;;5.53;;
60006;SDS011;45863;50.336;3.536;2023-02-02T09:33:54;18.23;;;6.30;;
60006;SDS011;45863;50.336;3.536;2023-02-02T09:36:20;22.17;;;7.03;;
60006;SDS011;45863;50.336;3.536;2023-02-02T09:38:45;21.58;;;6.75;;
60006;SDS011;45863;50.336;3.536;2023-02-02T09:49:05;17.83;;;4.32;;
60006;SDS011;45863;50.336;3.536;2023-02-02T09:51:32;17.58;;;3.58;;
60006;SDS011;45863;50.336;3.536;2023-02-02T09:56:57;14.85;;;4.15;;
60006;SDS011;45863;50.336;3.536;2023-02-02T09:59:30;22.00;;;4.15;;
60006;SDS011;45863;50.336;3.536;2023-02-02T10:01:57;22.85;;;4.38;;
60006;SDS011;45863;50.336;3.536;2023-02-02T10:04:37;14.40;;;3.03;;
60006;SDS011;45863;50.336;3.536;2023-02-02T10:07:13;12.32;;;3.63;;
60006;SDS011;45863;50.336;3.536;2023-02-02T10:20:28;21.35;;;5.03;;
60006;SDS011;45863;50.336;3.536;2023-02-02T10:22:56;13.15;;;5.25;;
60006;SDS011;45863;50.336;3.536;2023-02-02T10:25:25;16.10;;;6.10;;
60006;SDS011;45863;50.336;3.536;2023-02-02T10:27:54;20.85;;;4.47;;
60006;SDS011;45863;50.336;3.536;2023-02-02T10:30:39;16.80;;;4.43;;
60006;SDS011;45863;50.336;3.536;2023-02-02T10:33:14;14.68;;;4.10;;
60006;SDS011;45863;50.336;3.536;2023-02-02T10:38:43;18.90;;;4.32;;
60006;SDS011;45863;50.336;3.536;2023-02-02T10:41:14;17.40;;;3.63;;
60006;SDS011;45863;50.336;3.536;2023-02-02T10:48:50;13.80;;;3.20;;
60006;SDS011;45863;50.336;3.536;2023-02-02T10:51:20;9.48;;;3.47;;
60006;SDS011;45863;50.336;3.536;2023-02-02T10:53:49;12.30;;;3.45;;
60006;SDS011;45863;50.336;3.536;2023-02-02T10:56:15;10.63;;;3.65;;
60006;SDS011;45863;50.336;3.536;2023-02-02T11:01:19;15.30;;;4.97;;
60006;SDS011;45863;50.336;3.536;2023-02-02T11:03:46;16.77;;;6.60;;
60006;SDS011;45863;50.336;3.536;2023-02-02T11:06:12;19.58;;;7.57;;
60006;SDS011;45863;50.336;3.536;2023-02-02T11:08:56;20.52;;;6.60;;
60006;SDS011;45863;50.336;3.536;2023-02-02T11:11:41;17.65;;;6.53;;
60006;SDS011;45863;50.336;3.536;2023-02-02T11:16:35;14.67;;;4.30;;
60006;SDS011;45863;50.336;3.536;2023-02-02T11:19:00;12.60;;;3.67;;
60006;SDS011;45863;50.336;3.536;2023-02-02T11:21:30;14.60;;;3.70;;
60006;SDS011;45863;50.336;3.536;2023-02-02T11:23:56;16.85;;;3.95;;
60006;SDS011;45863;50.336;3.536;2023-02-02T11:26:23;12.52;;;3.75;;
60006;SDS011;45863;50.336;3.536;2023-02-02T11:28:49;14.13;;;4.07;;
60006;SDS011;45863;50.336;3.536;2023-02-02T11:34:23;14.23;;;4.07;;
60006;SDS011;45863;50.336;3.536;2023-02-02T11:37:31;14.45;;;3.95;;
60006;SDS011;45863;50.336;3.536;2023-02-02T11:39:38;11.57;;;3.33;;
60006;SDS011;45863;50.336;3.536;2023-02-02T11:42:05;14.70;;;2.97;;
60006;SDS011;45863;50.336;3.536;2023-02-02T11:44:31;12.75;;;4.28;;
60006;SDS011;45863;50.336;3.536;2023-02-02T11:46:59;15.13;;;3.40;;
60006;SDS011;45863;50.336;3.536;2023-02-02T11:49:26;13.27;;;3.08;;
60006;SDS011;45863;50.336;3.536;2023-02-02T11:51:55;15.18;;;4.00;;
60006;SDS011;45863;50.336;3.536;2023-02-02T11:54:25;14.82;;;4.13;;
60006;SDS011;45863;50.336;3.536;2023-02-02T11:59:28;14.10;;;3.20;;
60006;SDS011;45863;50.336;3.536;2023-02-02T12:02:18;10.80;;;2.60;;
60006;SDS011;45863;50.336;3.536;2023-02-02T12:04:45;13.32;;;3.95;;
60006;SDS011;45863;50.336;3.536;2023-02-02T12:09:43;9.32;;;2.20;;
60006;SDS011;45863;50.336;3.536;2023-02-02T12:17:38;11.38;;;2.55;;
60006;SDS011;45863;50.336;3.536;2023-02-02T12:25:04;18.27;;;5.18;;
60006;SDS011;45863;50.336;3.536;2023-02-02T12:50:53;13.00;;;2.60;;
60006;SDS011;45863;50.336;3.536;2023-02-02T12:56:10;19.50;;;4.37;;
60006;SDS011;45863;50.336;3.536;2023-02-02T13:04:01;12.95;;;2.78;;
60006;SDS011;45863;50.336;3.536;2023-02-02T13:11:32;10.30;;;2.08;;
60006;SDS011;45863;50.336;3.536;2023-02-02T13:14:01;12.32;;;2.30;;
60006;SDS011;45863;50.336;3.536;2023-02-02T13:16:30;14.77;;;2.65;;
60006;SDS011;45863;50.336;3.536;2023-02-02T13:18:58;10.68;;;2.60;;
60006;SDS011;45863;50.336;3.536;2023-02-02T13:21:25;14.00;;;2.35;;
60006;SDS011;45863;50.336;3.536;2023-02-02T13:23:54;11.32;;;2.10;;
60006;SDS011;45863;50.336;3.536;2023-02-02T13:26:20;15.48;;;3.05;;
60006;SDS011;45863;50.336;3.536;2023-02-02T13:31:47;15.15;;;2.35;;
60006;SDS011;45863;50.336;3.536;2023-02-02T13:36:35;11.32;;;2.60;;
60006;SDS011;45863;50.336;3.536;2023-02-02T13:39:08;12.43;;;2.55;;
60006;SDS011;45863;50.336;3.536;2023-02-02T13:41:36;13.73;;;2.55;;
60006;SDS011;45863;50.336;3.536;2023-02-02T13:49:09;12.33;;;2.10;;
60006;SDS011;45863;50.336;3.536;2023-02-02T13:51:44;10.05;;;2.35;;
60006;SDS011;45863;50.336;3.536;2023-02-02T13:54:18;16.75;;;3.25;;
60006;SDS011;45863;50.336;3.536;2023-02-02T14:01:57;11.70;;;2.47;;
60006;SDS011;45863;50.336;3.536;2023-02-02T14:04:27;9.98;;;2.28;;
60006;SDS011;45863;50.336;3.536;2023-02-02T14:07:00;11.65;;;2.75;;
60006;SDS011;45863;50.336;3.536;2023-02-02T14:09:29;11.20;;;2.30;;
60006;SDS011;45863;50.336;3.536;2023-02-02T14:11:57;13.95;;;2.78;;
60006;SDS011;45863;50.336;3.536;2023-02-02T14:14:23;12.10;;;3.10;;
60006;SDS011;45863;50.336;3.536;2023-02-02T14:26:54;15.35;;;3.28;;
60006;SDS011;45863;50.336;3.536;2023-02-02T14:32:01;14.45;;;2.92;;
60006;SDS011;45863;50.336;3.536;2023-02-02T14:37:52;20.50;;;3.10;;
60006;SDS011;45863;50.336;3.536;2023-02-02T14:42:21;17.90;;;3.13;;
60006;SDS011;45863;50.336;3.536;2023-02-02T14:47:46;14.43;;;2.50;;
60006;SDS011;45863;50.336;3.536;2023-02-02T14:50:23;14.57;;;2.95;;
60006;SDS011;45863;50.336;3.536;2023-02-02T14:52:55;12.73;;;3.10;;
60006;SDS011;45863;50.336;3.536;2023-02-02T14:55:21;12.05;;;3.08;;
60006;SDS011;45863;50.336;3.536;2023-02-02T14:57:53;12.40;;;2.30;;
60006;SDS011;45863;50.336;3.536;2023-02-02T15:00:23;11.23;;;2.67;;
60006;SDS011;45863;50.336;3.536;2023-02-02T15:02:50;14.35;;;2.80;;
60006;SDS011;45863;50.336;3.536;2023-02-02T15:10:55;12.00;;;2.38;;
60006;SDS011;45863;50.336;3.536;2023-02-02T15:13:21;10.63;;;2.42;;
60006;SDS011;45863;50.336;3.536;2023-02-02T15:15:48;14.88;;;3.92;;
60006;SDS011;45863;50.336;3.536;2023-02-02T15:18:15;10.88;;;2.72;;
60006;SDS011;45863;50.336;3.536;2023-02-02T15:20:44;9.27;;;2.25;;
60006;SDS011;45863;50.336;3.536;2023-02-02T15:26:03;9.68;;;2.05;;
60006;SDS011;45863;50.336;3.536;2023-02-02T15:33:48;11.48;;;2.70;;
60006;SDS011;45863;50.336;3.536;2023-02-02T15:36:18;6.70;;;1.98;;
60006;SDS011;45863;50.336;3.536;2023-02-02T15:38:44;14.80;;;2.33;;
60006;SDS011;45863;50.336;3.536;2023-02-02T15:43:43;13.40;;;3.33;;
60006;SDS011;45863;50.336;3.536;2023-02-02T15:46:10;10.38;;;2.60;;
60006;SDS011;45863;50.336;3.536;2023-02-02T15:48:37;11.65;;;3.05;;
60006;SDS011;45863;50.336;3.536;2023-02-02T15:51:03;16.35;;;3.15;;
60006;SDS011;45863;50.336;3.536;2023-02-02T15:53:33;12.23;;;3.15;;
60006;SDS011;45863;50.336;3.536;2023-02-02T15:58:50;8.83;;;2.77;;
60006;SDS011;45863;50.336;3.536;2023-02-02T16:01:19;11.05;;;2.30;;
60006;SDS011;45863;50.336;3.536;2023-02-02T16:06:29;10.68;;;2.35;;
60006;SDS011;45863;50.336;3.536;2023-02-02T16:08:55;12.15;;;1.90;;
60006;SDS011;45863;50.336;3.536;2023-02-02T16:11:21;13.38;;;2.78;;
60006;SDS011;45863;50.336;3.536;2023-02-02T16:16:28;13.13;;;3.25;;
60006;SDS011;45863;50.336;3.536;2023-02-02T16:21:58;11.32;;;2.22;;
60006;SDS011;45863;50.336;3.536;2023-02-02T16:24:27;14.70;;;2.53;;
60006;SDS011;45863;50.336;3.536;2023-02-02T16:26:53;13.75;;;2.40;;
60006;SDS011;45863;50.336;3.536;2023-02-02T16:29:19;14.48;;;2.75;;
60006;SDS011;45863;50.336;3.536;2023-02-02T16:31:45;10.68;;;2.33;;
60006;SDS011;45863;50.336;3.536;2023-02-02T16:34:53;12.75;;;3.40;;
60006;SDS011;45863;50.336;3.536;2023-02-02T16:39:30;14.35;;;3.58;;
60006;SDS011;45863;50.336;3.536;2023-02-02T16:42:06;12.63;;;2.90;;
60006;SDS011;45863;50.336;3.536;2023-02-02T16:44:41;14.68;;;3.13;;
60006;SDS011;45863;50.336;3.536;2023-02-02T16:47:29;12.70;;;2.95;;
60006;SDS011;45863;50.336;3.536;2023-02-02T16:52:31;15.77;;;3.50;;
60006;SDS011;45863;50.336;3.536;2023-02-02T16:54:57;12.60;;;2.40;;
60006;SDS011;45863;50.336;3.536;2023-02-02T16:57:29;12.07;;;2.80;;
60006;SDS011;45863;50.336;3.536;2023-02-02T16:59:56;16.00;;;3.28;;
60006;SDS011;45863;50.336;3.536;2023-02-02T17:02:24;15.23;;;3.08;;
60006;SDS011;45863;50.336;3.536;2023-02-02T17:04:52;8.77;;;2.20;;
60006;SDS011;45863;50.336;3.536;2023-02-02T17:07:18;16.38;;;3.47;;
60006;SDS011;45863;50.336;3.536;2023-02-02T17:09:45;7.90;;;2.85;;
60006;SDS011;45863;50.336;3.536;2023-02-02T17:17:14;9.32;;;2.25;;
60006;SDS011;45863;50.336;3.536;2023-02-02T17:19:39;11.70;;;2.47;;
60006;SDS011;45863;50.336;3.536;2023-02-02T17:22:05;13.52;;;2.42;;
60006;SDS011;45863;50.336;3.536;2023-02-02T17:24:31;14.48;;;2.53;;
60006;SDS011;45863;50.336;3.536;2023-02-02T17:26:56;15.88;;;2.70;;
60006;SDS011;45863;50.336;3.536;2023-02-02T17:29:21;15.75;;;2.80;;
60006;SDS011;45863;50.336;3.536;2023-02-02T17:31:47;14.15;;;2.88;;
60006;SDS011;45863;50.336;3.536;2023-02-02T17:34:12;11.75;;;3.67;;
60006;SDS011;45863;50.336;3.536;2023-02-02T17:36:41;14.65;;;3.80;;
60006;SDS011;45863;50.336;3.536;2023-02-02T17:39:06;11.60;;;2.50;;
60006;SDS011;45863;50.336;3.536;2023-02-02T17:41:31;9.80;;;2.70;;